Terminal Aerodrome Forecast
Issued by NWS Columbia, SC

Home | Current Version | Previous Version | Text Only | Print | Product List | Glossary On
Versions: 1 2 3 4 5 6 7 8 9 10 11 12 13 14 15 16 17 18 19 20 21 22 23 24 25 26 27 28 29 30 31 32
000
FTUS42 KCAE 031735
TAFCAE
TAF
KCAE 031735Z 0318/0418 12008KT P6SM VCSH SCT040 BKN050
     FM032200 14008KT P6SM SCT050
     FM040900 00000KT 3SM BR BKN010
     FM041400 VRB05KT P6SM SCT040=

USA.gov is the U.S. government's official web portal to all federal, state and local government web resources and services.